Relevés horaires Beauvechain (Belgique)


Relevés horaires à Beauvechain - Jeudi 12 Juill. 2018
Heure UTC1 Température [°C] Vent [km/h] Hum. [%] Pres.4 [hPa] Visi. [Km] Nébu. [octa] Préc.5 [mm] Cond.
2m. Res. Ros. Dir.2 Vit. Moy. Raf.3
23:00 15.3 15.3 13.1 N 3.7 -- 7.4 87 1021.2(0.9/3h) 15 -- -- --
22:00 15.8 15.8 13.3 NNO 5.6 -- 7.4 85 1021.2(1.4/3h) 18 -- -- --
21:00 17.7 17.7 12.6 NNO 5.6 -- 14.8 72 1020.7(1.5/3h) 20 -- -- --
20:00 20.0 20.0 11.9 NNO 5.6 -- 13.0 60 1020.1(1.1/3h) 20 -- -- --
19:00 22.1 22.1 12.8 N 7.4 -- 14.8 56 1019.3(0.4/3h) 20 -- -- --
18:00 23.5 23.5 13.0 NO 7.4 -- 14.8 52 1018.8(0.0/3h) 20 -- -- --
17:00 23.7 23.7 12.6 NO 7.4 -- 13.0 50 1018.7(-0.4/3h) 20 -- -- --
16:00 24.2 24.2 11.5 NNO 9.3 -- 14.8 45 1018.7(-0.4/3h) 25 2/8 -- --
15:00 24.1 24.1 10.8 NNO 7.4 -- 14.8 43 1019(-0.4/3h) 25 2/8 -- --
14:00 24.3 24.3 12.1 N 7.4 -- 13.0 46 1019.2(-0.5/3h) 25 2/8 -- --
13:00 23.5 23.5 12.0 N 9.3 -- 14.8 48 1019.2(-0.4/3h) 25 2/8 -- --
12:00 23.2 23.2 12.0 N 7.4 -- 13.0 49 1019.5(-0.3/3h) 25 2/8 -- --
11:00 22.8 22.8 12.5 N 7.4 -- 13.0 52 1019.7(-0.1/3h) 25 1/8 -- --
10:00 21.6 21.6 12.0 N 7.4 -- 13.0 54 1019.7(0.0/3h) 25 1/8 -- --
09:00 20.9 20.9 13.8 NNO 7.4 -- 11.1 64 1019.8(0.7/3h) 15 1/8 -- --
08:00 17.5 17.5 13.8 NO 5.6 -- 11.1 79 1020.2(0.8/3h) 9 5/8 -- --
07:00 16.5 16.5 13.8 N 3.7 -- 7.4 84 1020.1(0.8/3h) 7 6/8 -- --
06:00 15.8 15.8 13.6 NNO 5.6 -- -- 87 1019.6 4 8/8 -- Du brouillard ou du brouillard glacé (plus correctement designé sous le nom de brume) est observé et la visibilité n'est ni inférieure à 5/8 de mille ni supérieure à 6 milles
05:00 15.9 15.9 13.2 NNO 5.6 -- -- 84 1019.5 4 8/8 -- Du brouillard ou du brouillard glacé (plus correctement designé sous le nom de brume) est observé et la visibilité n'est ni inférieure à 5/8 de mille ni supérieure à 6 milles
04:00 21.7 21.7 7.6 ONO 5.6 -- 14.8 40 1018.2(-0.6/3h) 15 5/8 -- --
03:00 21.7 21.7 7.6 ONO 5.6 -- 14.8 40 1018.2(-0.6/3h) 15 5/8 -- --
02:00 21.7 21.7 7.6 ONO 5.6 -- 14.8 40 1018.2(-0.6/3h) 15 5/8 -- --
01:00 21.7 21.7 7.6 ONO 5.6 -- 14.8 40 1018.2(-0.6/3h) 15 5/8 -- --
00:00 21.7 21.7 7.6 ONO 5.6 -- 14.8 40 1018.2(-0.6/3h) 15 5/8 -- --

1 Coordinated Universal Time. Actuellement il est 16:00 locale et 15:00 UTC.

2 Le vent souffle depuis la direction indiquée vers la direction oposée.

3 Les rafales max. sont disponible 40 min après l'heure du relevé.

4 Pour les stations d'altitude (plus de 600m) le géopotentiel du niveau le plus proche de la pression obligatoire est indiqué.

5 Les stations disposant d'un diffuseur peuvent indiquer "trace". Cela signifie que des précipitations ont touchés le sol mais que la quantité est inférieure à 0.1 mm.

Récapitulatif de la journée
Température [°C] Vent [km/h] Ensoleillement4 [h] Precipitations totale5 [mm] Pression [Hpa]
Min1 Max.2 Moy.3 Max. Min Max.
-- 25.6 0 14.8 0 h 0 min 0 1018.2 1021.2

1 Température minimale relevée entre 18:00 UTC la veille et 18:00 UTC le jour donné.

2 Température maximale relevée entre 06:00 UTC le jour donné et 06:00 UTC le lendemain.

3 Vent moyen de la journée basé sur les relevés horaires.

4 Ensoleillement en heures relevé entre 06:00 UTC la veille et 06:00 UTC le jour donné.

5 Précipitations totales tombées entre 06:00 UTC la jour donné et 06:00 UTC le lendemain.

Graphiques horaires